sensor_id;sensor_type;location;lat;lon;timestamp;temperature;humidity
8778;DHT22;4425;50.872;4.712;2023-06-22T00:01:14;21.70;99.90
8778;DHT22;4425;50.872;4.712;2023-06-22T00:03:41;21.70;99.90
8778;DHT22;4425;50.872;4.712;2023-06-22T00:06:08;21.70;99.90
8778;DHT22;4425;50.872;4.712;2023-06-22T00:08:34;21.70;99.90
8778;DHT22;4425;50.872;4.712;2023-06-22T00:11:01;21.60;99.90
8778;DHT22;4425;50.872;4.712;2023-06-22T00:13:28;21.60;99.90
8778;DHT22;4425;50.872;4.712;2023-06-22T00:15:55;21.60;99.90
8778;DHT22;4425;50.872;4.712;2023-06-22T00:18:23;21.50;99.90
8778;DHT22;4425;50.872;4.712;2023-06-22T00:20:54;21.50;99.90
8778;DHT22;4425;50.872;4.712;2023-06-22T00:23:23;21.50;99.90
8778;DHT22;4425;50.872;4.712;2023-06-22T00:25:50;21.40;99.90
8778;DHT22;4425;50.872;4.712;2023-06-22T00:28:17;21.40;99.90
8778;DHT22;4425;50.872;4.712;2023-06-22T00:30:44;21.40;99.90
8778;DHT22;4425;50.872;4.712;2023-06-22T00:33:11;21.30;99.90
8778;DHT22;4425;50.872;4.712;2023-06-22T00:35:39;21.30;99.90
8778;DHT22;4425;50.872;4.712;2023-06-22T00:38:07;21.30;99.90
8778;DHT22;4425;50.872;4.712;2023-06-22T00:40:34;21.30;99.90
8778;DHT22;4425;50.872;4.712;2023-06-22T00:43:01;21.30;99.90
8778;DHT22;4425;50.872;4.712;2023-06-22T00:45:28;21.30;99.90
8778;DHT22;4425;50.872;4.712;2023-06-22T00:47:56;21.20;99.90
8778;DHT22;4425;50.872;4.712;2023-06-22T00:50:25;21.30;99.90
8778;DHT22;4425;50.872;4.712;2023-06-22T00:52:56;21.30;99.90
8778;DHT22;4425;50.872;4.712;2023-06-22T00:55:24;21.30;99.90
8778;DHT22;4425;50.872;4.712;2023-06-22T00:57:52;21.30;99.90
8778;DHT22;4425;50.872;4.712;2023-06-22T01:00:22;21.30;99.90
8778;DHT22;4425;50.872;4.712;2023-06-22T01:02:51;21.30;99.90
8778;DHT22;4425;50.872;4.712;2023-06-22T01:05:19;21.30;99.90
8778;DHT22;4425;50.872;4.712;2023-06-22T01:07:58;21.30;99.90
8778;DHT22;4425;50.872;4.712;2023-06-22T01:10:31;21.30;99.90
8778;DHT22;4425;50.872;4.712;2023-06-22T01:13:02;21.30;99.90
8778;DHT22;4425;50.872;4.712;2023-06-22T01:15:35;21.30;99.90
8778;DHT22;4425;50.872;4.712;2023-06-22T01:18:04;21.30;99.90
8778;DHT22;4425;50.872;4.712;2023-06-22T01:20:33;21.30;99.90
8778;DHT22;4425;50.872;4.712;2023-06-22T01:23:10;21.30;99.90
8778;DHT22;4425;50.872;4.712;2023-06-22T01:25:46;21.30;99.90
8778;DHT22;4425;50.872;4.712;2023-06-22T01:28:37;21.30;99.90
8778;DHT22;4425;50.872;4.712;2023-06-22T01:31:05;21.20;99.90
8778;DHT22;4425;50.872;4.712;2023-06-22T01:33:37;21.20;99.90
8778;DHT22;4425;50.872;4.712;2023-06-22T01:36:05;21.00;99.90
8778;DHT22;4425;50.872;4.712;2023-06-22T01:38:33;21.00;99.90
8778;DHT22;4425;50.872;4.712;2023-06-22T01:41:01;21.00;99.90
8778;DHT22;4425;50.872;4.712;2023-06-22T01:43:29;21.00;99.90
8778;DHT22;4425;50.872;4.712;2023-06-22T01:46:01;20.90;99.90
8778;DHT22;4425;50.872;4.712;2023-06-22T01:48:29;20.90;99.90
8778;DHT22;4425;50.872;4.712;2023-06-22T01:50:56;20.90;99.90
8778;DHT22;4425;50.872;4.712;2023-06-22T01:53:24;20.80;99.90
8778;DHT22;4425;50.872;4.712;2023-06-22T01:55:51;20.80;99.90
8778;DHT22;4425;50.872;4.712;2023-06-22T01:58:21;20.80;99.90
8778;DHT22;4425;50.872;4.712;2023-06-22T02:00:55;20.70;99.90
8778;DHT22;4425;50.872;4.712;2023-06-22T02:03:28;20.70;99.90
8778;DHT22;4425;50.872;4.712;2023-06-22T02:06:02;20.70;99.90
8778;DHT22;4425;50.872;4.712;2023-06-22T02:08:32;20.60;99.90
8778;DHT22;4425;50.872;4.712;2023-06-22T02:11:02;20.70;99.90
8778;DHT22;4425;50.872;4.712;2023-06-22T02:13:31;20.70;99.90
8778;DHT22;4425;50.872;4.712;2023-06-22T02:15:59;20.70;99.90
8778;DHT22;4425;50.872;4.712;2023-06-22T02:18:28;20.70;99.90
8778;DHT22;4425;50.872;4.712;2023-06-22T02:20:55;20.70;99.90
8778;DHT22;4425;50.872;4.712;2023-06-22T02:23:22;20.70;99.90
8778;DHT22;4425;50.872;4.712;2023-06-22T02:25:49;20.70;99.90
8778;DHT22;4425;50.872;4.712;2023-06-22T02:28:16;20.60;99.90
8778;DHT22;4425;50.872;4.712;2023-06-22T02:30:43;20.60;99.90
8778;DHT22;4425;50.872;4.712;2023-06-22T02:33:10;20.60;99.90
8778;DHT22;4425;50.872;4.712;2023-06-22T02:35:38;20.60;99.90
8778;DHT22;4425;50.872;4.712;2023-06-22T02:38:05;20.60;99.90
8778;DHT22;4425;50.872;4.712;2023-06-22T02:40:33;20.70;99.90
8778;DHT22;4425;50.872;4.712;2023-06-22T02:43:00;20.60;99.90
8778;DHT22;4425;50.872;4.712;2023-06-22T02:45:28;20.60;99.90
8778;DHT22;4425;50.872;4.712;2023-06-22T02:47:55;20.60;99.90
8778;DHT22;4425;50.872;4.712;2023-06-22T02:50:22;20.50;99.90
8778;DHT22;4425;50.872;4.712;2023-06-22T02:52:51;20.50;99.90
8778;DHT22;4425;50.872;4.712;2023-06-22T02:55:18;20.40;99.90
8778;DHT22;4425;50.872;4.712;2023-06-22T02:57:45;20.40;99.90
8778;DHT22;4425;50.872;4.712;2023-06-22T03:00:13;20.30;99.90
8778;DHT22;4425;50.872;4.712;2023-06-22T03:02:43;20.20;99.90
8778;DHT22;4425;50.872;4.712;2023-06-22T03:05:11;20.20;99.90
8778;DHT22;4425;50.872;4.712;2023-06-22T03:07:40;20.10;99.90
8778;DHT22;4425;50.872;4.712;2023-06-22T03:10:09;20.10;99.90
8778;DHT22;4425;50.872;4.712;2023-06-22T03:12:37;20.10;99.90
8778;DHT22;4425;50.872;4.712;2023-06-22T03:15:05;20.10;99.90
8778;DHT22;4425;50.872;4.712;2023-06-22T03:17:33;20.10;99.90
8778;DHT22;4425;50.872;4.712;2023-06-22T03:20:00;20.10;99.90
8778;DHT22;4425;50.872;4.712;2023-06-22T03:22:29;20.10;99.90
8778;DHT22;4425;50.872;4.712;2023-06-22T03:24:56;20.20;99.90
8778;DHT22;4425;50.872;4.712;2023-06-22T03:27:25;20.20;99.90
8778;DHT22;4425;50.872;4.712;2023-06-22T03:29:52;20.20;99.90
8778;DHT22;4425;50.872;4.712;2023-06-22T03:32:18;20.20;99.90
8778;DHT22;4425;50.872;4.712;2023-06-22T03:34:45;20.30;99.90
8778;DHT22;4425;50.872;4.712;2023-06-22T03:37:13;20.20;99.90
8778;DHT22;4425;50.872;4.712;2023-06-22T03:39:40;20.20;99.90
8778;DHT22;4425;50.872;4.712;2023-06-22T03:42:07;20.20;99.90
8778;DHT22;4425;50.872;4.712;2023-06-22T03:44:36;20.20;99.90
8778;DHT22;4425;50.872;4.712;2023-06-22T03:47:03;20.30;99.90
8778;DHT22;4425;50.872;4.712;2023-06-22T03:49:32;20.30;99.90
8778;DHT22;4425;50.872;4.712;2023-06-22T03:52:00;20.40;99.90
8778;DHT22;4425;50.872;4.712;2023-06-22T03:54:28;20.40;99.90
8778;DHT22;4425;50.872;4.712;2023-06-22T03:56:56;20.50;99.90
8778;DHT22;4425;50.872;4.712;2023-06-22T03:59:23;20.50;99.90
8778;DHT22;4425;50.872;4.712;2023-06-22T04:01:51;20.40;99.90
8778;DHT22;4425;50.872;4.712;2023-06-22T04:04:18;20.40;99.90
8778;DHT22;4425;50.872;4.712;2023-06-22T04:06:45;20.40;99.90
8778;DHT22;4425;50.872;4.712;2023-06-22T04:09:12;20.40;99.90
8778;DHT22;4425;50.872;4.712;2023-06-22T04:11:39;20.40;99.90
8778;DHT22;4425;50.872;4.712;2023-06-22T04:14:06;20.40;99.90
8778;DHT22;4425;50.872;4.712;2023-06-22T04:16:33;20.40;99.90
8778;DHT22;4425;50.872;4.712;2023-06-22T04:19:01;20.40;99.90
8778;DHT22;4425;50.872;4.712;2023-06-22T04:21:28;20.40;99.90
8778;DHT22;4425;50.872;4.712;2023-06-22T04:23:55;20.50;99.90
8778;DHT22;4425;50.872;4.712;2023-06-22T04:26:22;20.40;99.90
8778;DHT22;4425;50.872;4.712;2023-06-22T04:28:49;20.40;99.90
8778;DHT22;4425;50.872;4.712;2023-06-22T04:31:17;20.40;99.90
8778;DHT22;4425;50.872;4.712;2023-06-22T04:33:44;20.30;99.90
8778;DHT22;4425;50.872;4.712;2023-06-22T04:36:12;20.30;99.90
8778;DHT22;4425;50.872;4.712;2023-06-22T04:38:40;20.30;99.90
8778;DHT22;4425;50.872;4.712;2023-06-22T04:41:08;20.30;99.90
8778;DHT22;4425;50.872;4.712;2023-06-22T04:43:49;20.30;99.90
8778;DHT22;4425;50.872;4.712;2023-06-22T04:46:19;20.30;99.90
8778;DHT22;4425;50.872;4.712;2023-06-22T04:48:46;20.30;99.90
8778;DHT22;4425;50.872;4.712;2023-06-22T04:51:14;20.30;99.90
8778;DHT22;4425;50.872;4.712;2023-06-22T04:53:41;20.40;99.90
8778;DHT22;4425;50.872;4.712;2023-06-22T04:56:08;20.40;99.90
8778;DHT22;4425;50.872;4.712;2023-06-22T04:58:35;20.50;99.90
8778;DHT22;4425;50.872;4.712;2023-06-22T05:01:02;20.60;99.90
8778;DHT22;4425;50.872;4.712;2023-06-22T05:03:29;20.60;99.90
8778;DHT22;4425;50.872;4.712;2023-06-22T05:05:56;20.70;99.90
8778;DHT22;4425;50.872;4.712;2023-06-22T05:08:24;20.80;99.90
8778;DHT22;4425;50.872;4.712;2023-06-22T05:10:52;20.80;99.90
8778;DHT22;4425;50.872;4.712;2023-06-22T05:13:19;20.70;99.90
8778;DHT22;4425;50.872;4.712;2023-06-22T05:15:47;20.80;99.90
8778;DHT22;4425;50.872;4.712;2023-06-22T05:18:14;20.80;99.90
8778;DHT22;4425;50.872;4.712;2023-06-22T05:20:41;20.90;99.90
8778;DHT22;4425;50.872;4.712;2023-06-22T05:23:08;20.90;99.90
8778;DHT22;4425;50.872;4.712;2023-06-22T05:25:36;20.90;99.90
8778;DHT22;4425;50.872;4.712;2023-06-22T05:28:03;20.90;99.90
8778;DHT22;4425;50.872;4.712;2023-06-22T05:30:37;20.80;99.90
8778;DHT22;4425;50.872;4.712;2023-06-22T05:33:04;20.90;99.90
8778;DHT22;4425;50.872;4.712;2023-06-22T05:35:31;20.90;99.90
8778;DHT22;4425;50.872;4.712;2023-06-22T05:37:58;20.90;99.90
8778;DHT22;4425;50.872;4.712;2023-06-22T05:40:24;20.90;99.90
8778;DHT22;4425;50.872;4.712;2023-06-22T05:42:54;20.90;99.90
8778;DHT22;4425;50.872;4.712;2023-06-22T05:45:21;20.90;99.90
8778;DHT22;4425;50.872;4.712;2023-06-22T05:47:48;20.90;99.90
8778;DHT22;4425;50.872;4.712;2023-06-22T05:50:15;20.90;99.90
8778;DHT22;4425;50.872;4.712;2023-06-22T05:52:42;20.80;99.90
8778;DHT22;4425;50.872;4.712;2023-06-22T05:55:09;20.90;99.90
8778;DHT22;4425;50.872;4.712;2023-06-22T05:57:36;20.90;99.90
8778;DHT22;4425;50.872;4.712;2023-06-22T06:00:06;20.80;99.90
8778;DHT22;4425;50.872;4.712;2023-06-22T06:02:36;20.80;99.90
8778;DHT22;4425;50.872;4.712;2023-06-22T06:05:07;20.80;99.90
8778;DHT22;4425;50.872;4.712;2023-06-22T06:07:33;20.80;99.90
8778;DHT22;4425;50.872;4.712;2023-06-22T06:10:00;20.80;99.90
8778;DHT22;4425;50.872;4.712;2023-06-22T06:12:27;20.70;99.90
8778;DHT22;4425;50.872;4.712;2023-06-22T06:14:54;20.80;99.90
8778;DHT22;4425;50.872;4.712;2023-06-22T06:17:23;20.80;99.90
8778;DHT22;4425;50.872;4.712;2023-06-22T06:19:50;20.80;99.90
8778;DHT22;4425;50.872;4.712;2023-06-22T06:22:18;20.70;99.90
8778;DHT22;4425;50.872;4.712;2023-06-22T06:24:46;20.80;99.90
8778;DHT22;4425;50.872;4.712;2023-06-22T06:27:14;20.70;99.90
8778;DHT22;4425;50.872;4.712;2023-06-22T06:29:41;20.80;99.90
8778;DHT22;4425;50.872;4.712;2023-06-22T06:32:08;20.90;99.90
8778;DHT22;4425;50.872;4.712;2023-06-22T06:34:36;20.90;99.90
8778;DHT22;4425;50.872;4.712;2023-06-22T06:37:03;21.10;99.90
8778;DHT22;4425;50.872;4.712;2023-06-22T06:39:30;21.20;99.90
8778;DHT22;4425;50.872;4.712;2023-06-22T06:41:57;21.20;99.90
8778;DHT22;4425;50.872;4.712;2023-06-22T06:44:24;21.10;99.90
8778;DHT22;4425;50.872;4.712;2023-06-22T06:46:51;21.10;99.90
8778;DHT22;4425;50.872;4.712;2023-06-22T06:49:19;21.30;99.90
8778;DHT22;4425;50.872;4.712;2023-06-22T06:51:48;21.50;99.90
8778;DHT22;4425;50.872;4.712;2023-06-22T06:54:16;21.60;99.90
8778;DHT22;4425;50.872;4.712;2023-06-22T06:56:46;21.70;99.90
8778;DHT22;4425;50.872;4.712;2023-06-22T06:59:13;21.80;99.90
8778;DHT22;4425;50.872;4.712;2023-06-22T07:01:41;21.80;99.90
8778;DHT22;4425;50.872;4.712;2023-06-22T07:04:10;21.80;99.90
8778;DHT22;4425;50.872;4.712;2023-06-22T07:06:37;21.90;99.90
8778;DHT22;4425;50.872;4.712;2023-06-22T07:09:06;21.90;99.90
8778;DHT22;4425;50.872;4.712;2023-06-22T07:11:33;21.90;99.90
8778;DHT22;4425;50.872;4.712;2023-06-22T07:14:01;21.80;99.90
8778;DHT22;4425;50.872;4.712;2023-06-22T07:16:28;21.70;99.90
8778;DHT22;4425;50.872;4.712;2023-06-22T07:18:56;21.60;99.90
8778;DHT22;4425;50.872;4.712;2023-06-22T07:21:23;21.50;99.90
8778;DHT22;4425;50.872;4.712;2023-06-22T07:23:50;21.60;99.90
8778;DHT22;4425;50.872;4.712;2023-06-22T07:26:19;21.80;99.90
8778;DHT22;4425;50.872;4.712;2023-06-22T07:28:45;22.00;99.90
8778;DHT22;4425;50.872;4.712;2023-06-22T07:31:13;22.10;99.90
8778;DHT22;4425;50.872;4.712;2023-06-22T07:33:40;22.30;99.90
8778;DHT22;4425;50.872;4.712;2023-06-22T07:36:07;22.60;99.90
8778;DHT22;4425;50.872;4.712;2023-06-22T07:38:34;22.50;99.90
8778;DHT22;4425;50.872;4.712;2023-06-22T07:41:02;22.40;99.90
8778;DHT22;4425;50.872;4.712;2023-06-22T07:43:32;22.20;99.90
8778;DHT22;4425;50.872;4.712;2023-06-22T07:45:59;22.20;99.90
8778;DHT22;4425;50.872;4.712;2023-06-22T07:48:26;22.20;99.90
8778;DHT22;4425;50.872;4.712;2023-06-22T07:50:53;22.20;99.90
8778;DHT22;4425;50.872;4.712;2023-06-22T07:53:20;22.20;99.90
8778;DHT22;4425;50.872;4.712;2023-06-22T07:55:48;22.10;99.90
8778;DHT22;4425;50.872;4.712;2023-06-22T07:58:15;22.10;99.90
8778;DHT22;4425;50.872;4.712;2023-06-22T08:00:45;22.00;99.90
8778;DHT22;4425;50.872;4.712;2023-06-22T08:03:14;21.90;99.90
8778;DHT22;4425;50.872;4.712;2023-06-22T08:05:41;21.70;99.90
8778;DHT22;4425;50.872;4.712;2023-06-22T08:08:08;21.70;99.90
8778;DHT22;4425;50.872;4.712;2023-06-22T08:10:35;21.60;99.90
8778;DHT22;4425;50.872;4.712;2023-06-22T08:13:02;21.60;99.90
8778;DHT22;4425;50.872;4.712;2023-06-22T08:15:28;21.60;99.90
8778;DHT22;4425;50.872;4.712;2023-06-22T08:17:57;21.70;99.90
8778;DHT22;4425;50.872;4.712;2023-06-22T08:20:25;21.70;99.90
8778;DHT22;4425;50.872;4.712;2023-06-22T08:22:54;21.60;99.90
8778;DHT22;4425;50.872;4.712;2023-06-22T08:25:26;21.60;99.90
8778;DHT22;4425;50.872;4.712;2023-06-22T08:27:52;21.60;99.90
8778;DHT22;4425;50.872;4.712;2023-06-22T08:30:19;21.50;99.90
8778;DHT22;4425;50.872;4.712;2023-06-22T08:32:46;21.50;99.90
8778;DHT22;4425;50.872;4.712;2023-06-22T08:35:14;21.40;99.90
8778;DHT22;4425;50.872;4.712;2023-06-22T08:37:41;21.40;99.90
8778;DHT22;4425;50.872;4.712;2023-06-22T08:40:09;21.50;99.90
8778;DHT22;4425;50.872;4.712;2023-06-22T08:42:36;21.60;99.90
8778;DHT22;4425;50.872;4.712;2023-06-22T08:45:04;21.60;99.90
8778;DHT22;4425;50.872;4.712;2023-06-22T08:47:31;21.70;99.90
8778;DHT22;4425;50.872;4.712;2023-06-22T08:49:58;21.70;99.90
8778;DHT22;4425;50.872;4.712;2023-06-22T08:52:28;21.80;99.90
8778;DHT22;4425;50.872;4.712;2023-06-22T08:54:56;21.90;99.90
8778;DHT22;4425;50.872;4.712;2023-06-22T08:57:23;22.00;99.90
8778;DHT22;4425;50.872;4.712;2023-06-22T08:59:50;21.80;99.90
8778;DHT22;4425;50.872;4.712;2023-06-22T09:02:17;21.80;99.90
8778;DHT22;4425;50.872;4.712;2023-06-22T09:04:46;21.70;99.90
8778;DHT22;4425;50.872;4.712;2023-06-22T09:07:12;21.80;99.90
8778;DHT22;4425;50.872;4.712;2023-06-22T09:09:41;21.70;99.90
8778;DHT22;4425;50.872;4.712;2023-06-22T09:12:09;21.70;99.90
8778;DHT22;4425;50.872;4.712;2023-06-22T09:14:36;21.70;99.90
8778;DHT22;4425;50.872;4.712;2023-06-22T09:17:03;21.70;99.90
8778;DHT22;4425;50.872;4.712;2023-06-22T09:19:30;21.80;99.90
8778;DHT22;4425;50.872;4.712;2023-06-22T09:21:57;21.80;99.90
8778;DHT22;4425;50.872;4.712;2023-06-22T09:24:24;21.90;99.90
8778;DHT22;4425;50.872;4.712;2023-06-22T09:26:52;21.90;99.90
8778;DHT22;4425;50.872;4.712;2023-06-22T09:29:19;21.80;99.90
8778;DHT22;4425;50.872;4.712;2023-06-22T09:31:46;21.90;99.90
8778;DHT22;4425;50.872;4.712;2023-06-22T09:34:13;21.80;99.90
8778;DHT22;4425;50.872;4.712;2023-06-22T09:36:41;21.80;99.90
8778;DHT22;4425;50.872;4.712;2023-06-22T09:39:08;21.80;99.90
8778;DHT22;4425;50.872;4.712;2023-06-22T09:41:35;21.80;99.90
8778;DHT22;4425;50.872;4.712;2023-06-22T09:44:03;21.80;99.90
8778;DHT22;4425;50.872;4.712;2023-06-22T09:46:30;21.80;99.90
8778;DHT22;4425;50.872;4.712;2023-06-22T09:48:57;21.80;99.90
8778;DHT22;4425;50.872;4.712;2023-06-22T09:51:24;21.70;99.90
8778;DHT22;4425;50.872;4.712;2023-06-22T09:53:50;21.40;99.90
8778;DHT22;4425;50.872;4.712;2023-06-22T09:56:17;21.20;99.90
8778;DHT22;4425;50.872;4.712;2023-06-22T09:58:45;21.00;99.90
8778;DHT22;4425;50.872;4.712;2023-06-22T10:01:14;20.80;99.90
8778;DHT22;4425;50.872;4.712;2023-06-22T10:03:41;20.50;99.90
8778;DHT22;4425;50.872;4.712;2023-06-22T10:06:08;20.30;99.90
8778;DHT22;4425;50.872;4.712;2023-06-22T10:08:35;20.20;99.90
8778;DHT22;4425;50.872;4.712;2023-06-22T10:11:02;20.20;99.90
8778;DHT22;4425;50.872;4.712;2023-06-22T10:13:29;20.10;99.90
8778;DHT22;4425;50.872;4.712;2023-06-22T10:15:56;20.00;99.90
8778;DHT22;4425;50.872;4.712;2023-06-22T10:18:24;19.90;99.90
8778;DHT22;4425;50.872;4.712;2023-06-22T10:20:52;19.90;99.90
8778;DHT22;4425;50.872;4.712;2023-06-22T10:23:19;19.80;99.90
8778;DHT22;4425;50.872;4.712;2023-06-22T10:25:46;19.70;99.90
8778;DHT22;4425;50.872;4.712;2023-06-22T10:28:13;19.60;99.90
8778;DHT22;4425;50.872;4.712;2023-06-22T10:30:41;19.60;99.90
8778;DHT22;4425;50.872;4.712;2023-06-22T10:33:08;19.50;99.90
8778;DHT22;4425;50.872;4.712;2023-06-22T10:35:37;19.30;99.90
8778;DHT22;4425;50.872;4.712;2023-06-22T10:38:05;19.20;99.90
8778;DHT22;4425;50.872;4.712;2023-06-22T10:40:32;19.10;99.90
8778;DHT22;4425;50.872;4.712;2023-06-22T10:42:58;19.10;99.90
8778;DHT22;4425;50.872;4.712;2023-06-22T10:45:25;18.90;99.90
8778;DHT22;4425;50.872;4.712;2023-06-22T10:47:53;18.80;99.90
8778;DHT22;4425;50.872;4.712;2023-06-22T10:50:19;18.60;99.90
8778;DHT22;4425;50.872;4.712;2023-06-22T10:52:48;18.40;99.90
8778;DHT22;4425;50.872;4.712;2023-06-22T10:55:15;18.40;99.90
8778;DHT22;4425;50.872;4.712;2023-06-22T10:57:42;18.30;99.90
8778;DHT22;4425;50.872;4.712;2023-06-22T11:00:11;18.30;99.90
8778;DHT22;4425;50.872;4.712;2023-06-22T11:02:38;18.30;99.90
8778;DHT22;4425;50.872;4.712;2023-06-22T11:05:06;18.30;99.90
8778;DHT22;4425;50.872;4.712;2023-06-22T11:07:33;18.30;99.90
8778;DHT22;4425;50.872;4.712;2023-06-22T11:10:02;18.30;99.90
8778;DHT22;4425;50.872;4.712;2023-06-22T11:12:29;18.30;99.90
8778;DHT22;4425;50.872;4.712;2023-06-22T11:14:56;18.30;99.90
8778;DHT22;4425;50.872;4.712;2023-06-22T11:17:23;18.20;99.90
8778;DHT22;4425;50.872;4.712;2023-06-22T11:19:50;18.20;99.90
8778;DHT22;4425;50.872;4.712;2023-06-22T11:22:17;18.30;99.90
8778;DHT22;4425;50.872;4.712;2023-06-22T11:24:44;18.20;99.90
8778;DHT22;4425;50.872;4.712;2023-06-22T11:27:13;18.30;99.90
8778;DHT22;4425;50.872;4.712;2023-06-22T11:29:39;18.40;99.90
8778;DHT22;4425;50.872;4.712;2023-06-22T11:32:07;18.40;99.90
8778;DHT22;4425;50.872;4.712;2023-06-22T11:34:34;18.50;99.90
8778;DHT22;4425;50.872;4.712;2023-06-22T11:37:01;18.50;99.90
8778;DHT22;4425;50.872;4.712;2023-06-22T11:39:28;18.50;99.90
8778;DHT22;4425;50.872;4.712;2023-06-22T11:41:55;18.60;99.90
8778;DHT22;4425;50.872;4.712;2023-06-22T11:44:23;18.60;99.90
8778;DHT22;4425;50.872;4.712;2023-06-22T11:46:50;18.60;99.90
8778;DHT22;4425;50.872;4.712;2023-06-22T11:49:18;18.50;99.90
8778;DHT22;4425;50.872;4.712;2023-06-22T11:51:45;18.50;99.90
8778;DHT22;4425;50.872;4.712;2023-06-22T11:54:11;18.40;99.90
8778;DHT22;4425;50.872;4.712;2023-06-22T11:56:39;18.50;99.90
8778;DHT22;4425;50.872;4.712;2023-06-22T11:59:05;18.40;99.90
8778;DHT22;4425;50.872;4.712;2023-06-22T12:01:34;18.50;99.90
8778;DHT22;4425;50.872;4.712;2023-06-22T12:04:01;18.50;99.90
8778;DHT22;4425;50.872;4.712;2023-06-22T12:06:31;18.50;99.90
8778;DHT22;4425;50.872;4.712;2023-06-22T12:08:58;18.50;99.90
8778;DHT22;4425;50.872;4.712;2023-06-22T12:11:25;18.60;99.90
8778;DHT22;4425;50.872;4.712;2023-06-22T12:13:52;18.50;99.90
8778;DHT22;4425;50.872;4.712;2023-06-22T12:16:20;18.60;99.90
8778;DHT22;4425;50.872;4.712;2023-06-22T12:18:50;18.50;99.90
8778;DHT22;4425;50.872;4.712;2023-06-22T12:21:17;18.50;99.90
8778;DHT22;4425;50.872;4.712;2023-06-22T12:23:44;18.50;99.90
8778;DHT22;4425;50.872;4.712;2023-06-22T12:26:12;18.50;99.90
8778;DHT22;4425;50.872;4.712;2023-06-22T12:28:39;18.50;99.90
8778;DHT22;4425;50.872;4.712;2023-06-22T12:31:06;18.40;99.90
8778;DHT22;4425;50.872;4.712;2023-06-22T12:33:34;18.40;99.90
8778;DHT22;4425;50.872;4.712;2023-06-22T12:36:02;18.40;99.90
8778;DHT22;4425;50.872;4.712;2023-06-22T12:38:30;18.40;99.90
8778;DHT22;4425;50.872;4.712;2023-06-22T12:40:57;18.40;99.90
8778;DHT22;4425;50.872;4.712;2023-06-22T12:43:24;18.40;99.90
8778;DHT22;4425;50.872;4.712;2023-06-22T12:45:51;18.40;99.90
8778;DHT22;4425;50.872;4.712;2023-06-22T12:48:19;18.40;99.90
8778;DHT22;4425;50.872;4.712;2023-06-22T12:50:46;18.30;99.90
8778;DHT22;4425;50.872;4.712;2023-06-22T12:53:16;18.40;99.90
8778;DHT22;4425;50.872;4.712;2023-06-22T12:55:43;18.40;99.90
8778;DHT22;4425;50.872;4.712;2023-06-22T12:58:10;18.40;99.90
8778;DHT22;4425;50.872;4.712;2023-06-22T13:00:39;18.30;99.90
8778;DHT22;4425;50.872;4.712;2023-06-22T13:03:06;18.30;99.90
8778;DHT22;4425;50.872;4.712;2023-06-22T13:05:34;18.30;99.90
8778;DHT22;4425;50.872;4.712;2023-06-22T13:08:01;18.30;99.90
8778;DHT22;4425;50.872;4.712;2023-06-22T13:10:30;18.30;99.90
8778;DHT22;4425;50.872;4.712;2023-06-22T13:12:57;18.30;99.90
8778;DHT22;4425;50.872;4.712;2023-06-22T13:15:26;18.30;99.90
8778;DHT22;4425;50.872;4.712;2023-06-22T13:17:54;18.30;99.90
8778;DHT22;4425;50.872;4.712;2023-06-22T13:20:22;18.40;99.90
8778;DHT22;4425;50.872;4.712;2023-06-22T13:22:49;18.40;99.90
8778;DHT22;4425;50.872;4.712;2023-06-22T13:25:16;18.40;99.90
8778;DHT22;4425;50.872;4.712;2023-06-22T13:27:47;18.40;99.90
8778;DHT22;4425;50.872;4.712;2023-06-22T13:30:14;18.40;99.90
8778;DHT22;4425;50.872;4.712;2023-06-22T13:32:43;18.40;99.90
8778;DHT22;4425;50.872;4.712;2023-06-22T13:35:11;18.40;99.90
8778;DHT22;4425;50.872;4.712;2023-06-22T13:37:38;18.30;99.90
8778;DHT22;4425;50.872;4.712;2023-06-22T13:40:07;18.40;99.90
8778;DHT22;4425;50.872;4.712;2023-06-22T13:42:34;18.40;99.90
8778;DHT22;4425;50.872;4.712;2023-06-22T13:45:04;18.40;99.90
8778;DHT22;4425;50.872;4.712;2023-06-22T13:47:32;18.40;99.90
8778;DHT22;4425;50.872;4.712;2023-06-22T13:49:59;18.40;99.90
8778;DHT22;4425;50.872;4.712;2023-06-22T13:52:31;18.40;99.90
8778;DHT22;4425;50.872;4.712;2023-06-22T13:54:58;18.40;99.90
8778;DHT22;4425;50.872;4.712;2023-06-22T13:57:25;18.40;99.90
8778;DHT22;4425;50.872;4.712;2023-06-22T13:59:53;18.40;99.90
8778;DHT22;4425;50.872;4.712;2023-06-22T14:02:22;18.40;99.90
8778;DHT22;4425;50.872;4.712;2023-06-22T14:04:49;18.50;99.90
8778;DHT22;4425;50.872;4.712;2023-06-22T14:07:16;18.40;99.90
8778;DHT22;4425;50.872;4.712;2023-06-22T14:09:45;18.40;99.90
8778;DHT22;4425;50.872;4.712;2023-06-22T14:12:13;18.40;99.90
8778;DHT22;4425;50.872;4.712;2023-06-22T14:14:40;18.40;99.90
8778;DHT22;4425;50.872;4.712;2023-06-22T14:17:08;18.40;99.90
8778;DHT22;4425;50.872;4.712;2023-06-22T14:19:39;18.30;99.90
8778;DHT22;4425;50.872;4.712;2023-06-22T14:22:07;18.30;99.90
8778;DHT22;4425;50.872;4.712;2023-06-22T14:24:34;18.30;99.90
8778;DHT22;4425;50.872;4.712;2023-06-22T14:27:02;18.30;99.90
8778;DHT22;4425;50.872;4.712;2023-06-22T14:29:33;18.30;99.90
8778;DHT22;4425;50.872;4.712;2023-06-22T14:32:00;18.30;99.90
8778;DHT22;4425;50.872;4.712;2023-06-22T14:34:27;18.30;99.90
8778;DHT22;4425;50.872;4.712;2023-06-22T14:36:57;18.30;99.90
8778;DHT22;4425;50.872;4.712;2023-06-22T14:39:26;18.30;99.90
8778;DHT22;4425;50.872;4.712;2023-06-22T14:41:53;18.30;99.90
8778;DHT22;4425;50.872;4.712;2023-06-22T14:44:21;18.30;99.90
8778;DHT22;4425;50.872;4.712;2023-06-22T14:46:48;18.30;99.90
8778;DHT22;4425;50.872;4.712;2023-06-22T14:49:15;18.30;99.90
8778;DHT22;4425;50.872;4.712;2023-06-22T14:51:43;18.30;99.90
8778;DHT22;4425;50.872;4.712;2023-06-22T14:54:11;18.30;99.90
8778;DHT22;4425;50.872;4.712;2023-06-22T14:56:38;18.40;99.90
8778;DHT22;4425;50.872;4.712;2023-06-22T14:59:06;18.40;99.90
8778;DHT22;4425;50.872;4.712;2023-06-22T15:01:34;18.30;99.90
8778;DHT22;4425;50.872;4.712;2023-06-22T15:04:01;18.40;99.90
8778;DHT22;4425;50.872;4.712;2023-06-22T15:06:30;18.40;99.90
8778;DHT22;4425;50.872;4.712;2023-06-22T15:08:57;18.40;99.90
8778;DHT22;4425;50.872;4.712;2023-06-22T15:24:11;18.70;99.90
8778;DHT22;4425;50.872;4.712;2023-06-22T15:26:38;18.70;99.90
8778;DHT22;4425;50.872;4.712;2023-06-22T15:29:05;18.70;99.90
8778;DHT22;4425;50.872;4.712;2023-06-22T15:31:32;18.80;99.90
8778;DHT22;4425;50.872;4.712;2023-06-22T15:33:59;18.70;99.90
8778;DHT22;4425;50.872;4.712;2023-06-22T15:36:27;18.70;99.90
8778;DHT22;4425;50.872;4.712;2023-06-22T15:38:54;18.70;99.90
8778;DHT22;4425;50.872;4.712;2023-06-22T15:41:24;18.80;99.90
8778;DHT22;4425;50.872;4.712;2023-06-22T15:44:05;18.70;99.90
8778;DHT22;4425;50.872;4.712;2023-06-22T15:46:32;18.80;99.90
8778;DHT22;4425;50.872;4.712;2023-06-22T15:48:59;18.80;99.90
8778;DHT22;4425;50.872;4.712;2023-06-22T22:27:34;18.30;99.90
8778;DHT22;4425;50.872;4.712;2023-06-22T22:30:01;18.20;99.90
8778;DHT22;4425;50.872;4.712;2023-06-22T22:32:28;18.30;99.90
8778;DHT22;4425;50.872;4.712;2023-06-22T22:34:55;18.20;99.90
8778;DHT22;4425;50.872;4.712;2023-06-22T22:37:21;18.20;99.90
8778;DHT22;4425;50.872;4.712;2023-06-22T22:39:48;18.20;99.90
8778;DHT22;4425;50.872;4.712;2023-06-22T22:42:15;18.10;99.90
8778;DHT22;4425;50.872;4.712;2023-06-22T22:44:43;18.10;99.90
8778;DHT22;4425;50.872;4.712;2023-06-22T22:47:10;18.10;99.90
8778;DHT22;4425;50.872;4.712;2023-06-22T22:49:37;18.10;99.90
8778;DHT22;4425;50.872;4.712;2023-06-22T22:52:04;18.00;99.90
8778;DHT22;4425;50.872;4.712;2023-06-22T22:54:31;18.00;99.90